Time;durP1;ratioP1;P1;durP2;ratioP2;P2;SDS_P1;SDS_P2;PMS_P1;PMS_P2;Temp;Humidity;BMP_temperature;BMP_pressure;BME280_temperature;BME280_humidity;BME280_pressure;Samples;Min_cycle;Max_cycle;Signal;HPM_P1;HPM_P2
2021/05/12 00:02:25;;;;;;;12.23;8.60;;;;;;;11.83;78.22;101102.13;5138444;27;20030;-38
2021/05/12 00:04:50;;;;;;;14.23;8.90;;;;;;;11.89;76.87;101102.25;5137931;27;20522;-38
2021/05/12 00:07:16;;;;;;;11.07;8.60;;;;;;;11.79;77.35;101100.09;5137644;27;20031;-38
2021/05/12 00:09:41;;;;;;;12.33;8.50;;;;;;;11.73;77.79;101098.31;5137549;27;20046;-38
2021/05/12 00:12:07;;;;;;;12.00;9.50;;;;;;;11.70;78.94;101102.31;5137530;27;20277;-39
2021/05/12 00:14:33;;;;;;;16.02;9.60;;;;;;;11.69;79.04;101100.66;5138395;27;20019;-39
2021/05/12 00:17:02;;;;;;;11.85;9.15;;;;;;;11.65;79.71;101098.66;5137680;27;20030;-39
2021/05/12 00:19:29;;;;;;;12.15;8.77;;;;;;;11.59;78.88;101111.25;5137623;27;20031;-39
2021/05/12 00:22:03;;;;;;;11.93;8.68;;;;;;;11.58;79.87;101105.00;5138164;27;20123;-39
2021/05/12 00:24:29;;;;;;;14.45;10.13;;;;;;;11.55;79.42;101108.16;5137297;27;20027;-39
2021/05/12 00:26:54;;;;;;;13.90;9.60;;;;;;;11.59;80.24;101112.06;5137589;27;20027;-38
2021/05/12 00:29:19;;;;;;;13.20;9.17;;;;;;;11.58;80.40;101106.88;5137716;27;20027;-39
2021/05/12 00:31:45;;;;;;;12.23;9.47;;;;;;;11.57;80.74;101114.19;5137077;27;20280;-38
2021/05/12 00:34:11;;;;;;;15.07;9.93;;;;;;;11.56;80.53;101114.41;5137373;27;20062;-38
2021/05/12 00:36:37;;;;;;;18.40;9.35;;;;;;;11.52;80.16;101114.06;5137205;27;20280;-38
2021/05/12 00:39:07;;;;;;;16.33;10.02;;;;;;;11.54;81.57;101108.41;5137630;27;20443;-38
2021/05/12 00:41:40;;;;;;;11.75;9.95;;;;;;;11.56;80.53;101109.81;5136866;27;20027;-38
2021/05/12 00:44:14;;;;;;;14.07;9.80;;;;;;;11.55;79.43;101115.47;5137145;27;20041;-38
2021/05/12 00:46:46;;;;;;;17.77;10.65;;;;;;;11.46;80.76;101117.66;5136914;27;20037;-38
2021/05/12 00:49:11;;;;;;;17.05;11.50;;;;;;;11.54;80.16;101119.22;5137887;27;20035;-39
2021/05/12 00:51:37;;;;;;;14.57;10.87;;;;;;;11.60;79.97;101129.13;5137361;27;20034;-38
2021/05/12 00:54:03;;;;;;;14.43;12.35;;;;;;;11.51;80.58;101131.34;5137299;27;20656;-38
2021/05/12 00:56:29;;;;;;;12.80;10.50;;;;;;;11.60;81.70;101124.53;5137252;27;20058;-39
2021/05/12 00:58:54;;;;;;;18.20;12.98;;;;;;;11.48;80.28;101131.81;5137304;27;20038;-38
2021/05/12 01:01:19;;;;;;;17.30;13.03;;;;;;;11.54;81.11;101135.47;5137050;27;20474;-38
2021/05/12 01:03:45;;;;;;;16.00;14.30;;;;;;;11.49;80.98;101130.75;5136320;27;20023;-38
2021/05/12 01:06:22;;;;;;;16.40;13.43;;;;;;;11.58;81.08;101132.09;5136614;27;20023;-38
2021/05/12 01:08:47;;;;;;;16.35;14.05;;;;;;;11.46;81.16;101123.06;5137302;27;20034;-38
2021/05/12 01:11:13;;;;;;;20.83;14.03;;;;;;;11.53;81.83;101131.94;5137275;27;20031;-38
2021/05/12 01:13:38;;;;;;;16.60;13.13;;;;;;;11.53;81.16;101128.41;5137220;27;20037;-39
2021/05/12 01:16:04;;;;;;;15.93;13.75;;;;;;;11.53;81.03;101126.53;5137332;27;20063;-39
2021/05/12 01:18:29;;;;;;;21.35;13.93;;;;;;;11.59;80.66;101133.72;5136581;27;20023;-38
2021/05/12 01:20:57;;;;;;;16.47;13.27;;;;;;;11.58;80.69;101132.09;5136553;27;20055;-38
2021/05/12 01:23:26;;;;;;;24.08;14.60;;;;;;;11.49;80.89;101127.22;5136446;27;20120;-38
2021/05/12 01:25:53;;;;;;;18.70;14.40;;;;;;;11.48;81.24;101129.09;5136953;27;20027;-38
2021/05/12 01:28:21;;;;;;;14.52;12.38;;;;;;;11.52;80.11;101127.59;5136011;27;20026;-38
2021/05/12 01:31:18;;;;;;;17.27;12.50;;;;;;;11.53;80.09;101129.25;5136056;27;20566;-39
2021/05/12 01:33:45;;;;;;;14.60;13.07;;;;;;;11.45;81.68;101120.59;5113811;28;20127;-38
2021/05/12 01:36:11;;;;;;;16.30;13.07;;;;;;;11.42;80.78;101132.75;5113813;28;20023;-38
2021/05/12 01:38:38;;;;;;;17.33;13.52;;;;;;;11.48;80.23;101125.56;5113164;28;20043;-38
2021/05/12 01:41:05;;;;;;;14.60;12.63;;;;;;;11.44;80.58;101127.91;5113162;28;20028;-38
2021/05/12 01:43:32;;;;;;;18.60;13.65;;;;;;;11.47;79.68;101132.88;5113212;28;20051;-38
2021/05/12 01:45:59;;;;;;;17.95;13.10;;;;;;;11.54;79.95;101133.59;5113029;28;20479;-38
2021/05/12 01:48:25;;;;;;;15.30;13.63;;;;;;;11.48;80.56;101134.53;5113053;28;20062;-38
2021/05/12 01:50:51;;;;;;;16.48;13.50;;;;;;;11.42;81.07;101127.31;5113234;28;20032;-38
2021/05/12 01:53:17;;;;;;;15.60;13.23;;;;;;;11.47;80.71;101127.47;5113410;28;20058;-38
2021/05/12 01:55:43;;;;;;;15.77;13.85;;;;;;;11.42;81.08;101129.19;5112870;28;20036;-38
2021/05/12 01:58:09;;;;;;;17.95;14.32;;;;;;;11.39;81.00;101119.66;5113036;28;20039;-38
2021/05/12 02:00:39;;;;;;;16.50;13.80;;;;;;;11.39;81.16;101130.47;5112811;28;20511;-38
2021/05/12 02:03:07;;;;;;;17.77;14.18;;;;;;;11.39;81.44;101130.47;5112738;28;20126;-38
2021/05/12 02:05:33;;;;;;;20.33;13.68;;;;;;;11.38;82.13;101125.31;5112628;28;20031;-39
2021/05/12 02:07:59;;;;;;;;;;;;;;;11.56;80.04;101128.75;5113045;28;20119;-39
2021/05/12 02:10:25;;;;;;;16.75;13.15;;;;;;;11.38;81.27;101120.72;5135257;27;19907;-39
2021/05/12 02:12:51;;;;;;;18.48;14.73;;;;;;;11.33;81.34;101120.56;5135666;27;20027;-38
2021/05/12 02:15:18;;;;;;;17.85;13.75;;;;;;;11.32;82.32;101113.47;5135003;27;20103;-38
2021/05/12 02:17:43;;;;;;;17.60;14.45;;;;;;;11.27;80.80;101116.91;5135387;27;20079;-38
2021/05/12 02:20:11;;;;;;;18.27;14.13;;;;;;;11.29;81.94;101122.91;5135251;27;20043;-39
2021/05/12 02:22:37;;;;;;;17.52;13.48;;;;;;;11.29;81.62;101131.03;5135812;27;20053;-38
2021/05/12 02:25:03;;;;;;;;;;;;;;;11.47;79.98;101124.75;5135918;27;20039;-38
2021/05/12 02:27:28;;;;;;;15.60;12.90;;;;;;;11.35;81.13;101121.97;5135049;27;19912;-39
2021/05/12 02:29:56;;;;;;;16.07;12.23;;;;;;;11.35;81.58;101121.16;5135449;27;20026;-38
2021/05/12 02:32:21;;;;;;;18.05;13.88;;;;;;;11.32;81.44;101135.16;5135004;27;20031;-39
2021/05/12 02:34:46;;;;;;;17.07;14.73;;;;;;;11.27;81.26;101140.41;5135795;27;20038;-38
2021/05/12 02:37:12;;;;;;;17.00;14.07;;;;;;;11.25;81.72;101137.94;5134991;27;20084;-38
2021/05/12 02:39:37;;;;;;;15.70;13.97;;;;;;;11.22;82.05;101126.75;5133653;27;20047;-39
2021/05/12 02:42:03;;;;;;;17.03;13.70;;;;;;;11.23;81.20;101128.41;5134658;27;20051;-39
2021/05/12 02:44:28;;;;;;;15.32;13.73;;;;;;;11.20;81.85;101131.56;5135157;27;20023;-39
2021/05/12 02:46:53;;;;;;;15.83;13.00;;;;;;;11.17;81.47;101132.84;5134608;27;20118;-38
2021/05/12 02:49:19;;;;;;;17.50;13.30;;;;;;;11.15;81.85;101126.84;5134946;27;20058;-38
2021/05/12 02:51:44;;;;;;;18.37;13.97;;;;;;;11.12;82.52;101123.75;5135063;27;20058;-39
2021/05/12 02:54:09;;;;;;;15.73;13.87;;;;;;;11.12;81.78;101129.16;5134607;27;20034;-38
2021/05/12 02:56:35;;;;;;;19.20;14.83;;;;;;;11.09;81.84;101136.69;5134131;27;20019;-38
2021/05/12 02:59:00;;;;;;;19.77;15.15;;;;;;;11.12;81.84;101127.28;5135062;27;20023;-38
2021/05/12 03:01:26;;;;;;;18.42;13.98;;;;;;;11.07;81.95;101122.56;5134382;27;20027;-38
2021/05/12 03:03:51;;;;;;;16.33;13.65;;;;;;;11.02;82.05;101114.28;5134710;27;20024;-38
2021/05/12 03:06:17;;;;;;;19.67;12.93;;;;;;;11.02;81.71;101124.28;5134366;27;20386;-38
2021/05/12 03:08:42;;;;;;;15.20;13.00;;;;;;;11.00;82.15;101123.72;5134373;27;20373;-38
2021/05/12 03:11:07;;;;;;;17.00;13.67;;;;;;;10.98;81.54;101123.94;5134386;27;20030;-38
2021/05/12 03:13:34;;;;;;;15.37;13.53;;;;;;;11.04;81.97;101133.84;5134291;27;20020;-38
2021/05/12 03:15:59;;;;;;;16.30;13.73;;;;;;;11.02;81.73;101144.06;5134971;27;20280;-38
2021/05/12 03:18:26;;;;;;;14.85;13.25;;;;;;;11.03;82.01;101145.72;5134217;27;20485;-38
2021/05/12 03:20:52;;;;;;;18.88;14.20;;;;;;;10.99;81.83;101133.72;5134791;27;20062;-38
2021/05/12 03:23:18;;;;;;;15.73;13.80;;;;;;;10.99;81.79;101133.72;5133985;27;20039;-38
2021/05/12 03:25:43;;;;;;;16.20;13.35;;;;;;;11.01;81.83;101141.59;5134303;27;20031;-38
2021/05/12 03:28:09;;;;;;;16.43;13.93;;;;;;;11.02;82.92;101135.94;5133932;27;20103;-38
2021/05/12 03:30:37;;;;;;;15.57;13.23;;;;;;;10.97;81.97;101143.91;5134009;27;20278;-38
2021/05/12 03:33:06;;;;;;;17.73;13.43;;;;;;;10.97;82.52;101145.78;5134460;27;20023;-38
2021/05/12 03:35:32;;;;;;;18.00;13.68;;;;;;;10.98;81.86;101142.88;5134389;27;20051;-38
2021/05/12 03:37:57;;;;;;;;;;;;;;;11.10;81.23;101151.06;5135072;27;20031;-38
2021/05/12 03:40:24;;;;;;;16.15;11.57;;;;;;;10.97;82.77;101138.50;5135021;28;20338;-38
2021/05/12 03:42:50;;;;;;;17.67;13.07;;;;;;;11.00;81.51;101143.47;5134641;27;20035;-39
2021/05/12 03:45:16;;;;;;;18.80;12.55;;;;;;;10.91;81.48;101146.69;5134897;27;20020;-38
2021/05/12 03:47:41;;;;;;;16.08;13.00;;;;;;;10.94;81.71;101146.25;5134004;27;20027;-38
2021/05/12 03:50:08;;;;;;;18.07;12.83;;;;;;;11.01;81.53;101150.53;5134167;27;20027;-38
2021/05/12 03:52:33;;;;;;;16.52;13.02;;;;;;;10.91;82.32;101144.00;5134330;27;20019;-39
2021/05/12 03:54:59;;;;;;;17.77;13.20;;;;;;;10.89;82.08;101144.22;5134310;27;20034;-38
2021/05/12 03:57:24;;;;;;;13.82;11.52;;;;;;;10.90;82.32;101129.66;5134171;27;20482;-38
2021/05/12 03:59:50;;;;;;;15.63;13.73;;;;;;;10.82;81.65;101141.59;5134282;27;20058;-38
2021/05/12 04:02:15;;;;;;;20.30;13.03;;;;;;;10.78;81.85;101142.25;5134190;27;20314;-38
2021/05/12 04:04:40;;;;;;;17.80;14.30;;;;;;;10.76;81.95;101152.50;5134464;27;20066;-38
2021/05/12 04:07:06;;;;;;;15.10;13.27;;;;;;;10.73;82.55;101152.94;5133959;27;20390;-38
2021/05/12 04:09:31;;;;;;;19.53;13.63;;;;;;;10.76;82.34;101147.06;5134468;27;20042;-38
2021/05/12 04:11:57;;;;;;;18.52;12.57;;;;;;;10.75;82.21;101148.97;5133529;27;20039;-38
2021/05/12 04:14:22;;;;;;;16.23;12.70;;;;;;;10.69;82.16;101151.75;5133821;27;20132;-38
2021/05/12 04:16:49;;;;;;;15.03;12.93;;;;;;;10.72;82.10;101156.69;5134311;27;20053;-38
2021/05/12 04:19:14;;;;;;;14.80;12.60;;;;;;;10.60;81.81;101145.78;5134332;27;20027;-38
2021/05/12 04:21:40;;;;;;;15.35;13.23;;;;;;;10.63;82.94;101152.63;5133956;27;20047;-38
2021/05/12 04:24:05;;;;;;;14.13;11.57;;;;;;;10.61;82.64;101157.44;5133817;27;20074;-38
2021/05/12 04:26:31;;;;;;;14.77;13.18;;;;;;;10.61;82.42;101162.84;5133986;27;20356;-38
2021/05/12 04:28:56;;;;;;;15.67;13.23;;;;;;;10.54;82.63;101158.34;5134237;27;20039;-38
2021/05/12 04:31:22;;;;;;;20.77;14.32;;;;;;;10.49;82.65;101169.00;5133597;27;20102;-38
2021/05/12 04:33:47;;;;;;;17.30;14.07;;;;;;;10.50;82.67;101167.94;5134060;27;20538;-38
2021/05/12 04:36:12;;;;;;;17.03;14.30;;;;;;;10.49;83.12;101168.13;5133658;27;20023;-38
2021/05/12 04:38:38;;;;;;;18.23;14.60;;;;;;;10.39;83.31;101160.53;5134527;27;20065;-38
2021/05/12 04:41:03;;;;;;;19.17;13.70;;;;;;;10.48;83.17;101164.63;5137273;27;20098;-38
2021/05/12 04:43:28;;;;;;;15.87;14.13;;;;;;;10.41;82.97;101160.34;5137524;27;20076;-38
2021/05/12 04:45:54;;;;;;;16.80;14.53;;;;;;;10.51;83.00;101163.34;5137591;27;20094;-38
2021/05/12 04:48:20;;;;;;;15.88;14.23;;;;;;;10.43;82.87;101172.56;5137661;27;20112;-38
2021/05/12 04:50:45;;;;;;;19.23;14.43;;;;;;;10.40;83.02;101167.63;5137591;27;20114;-38
2021/05/12 04:53:10;;;;;;;17.27;14.30;;;;;;;10.51;83.26;101172.28;5136761;27;20050;-38
2021/05/12 04:55:36;;;;;;;19.47;14.40;;;;;;;10.57;83.03;101168.69;5137519;27;20070;-38
2021/05/12 04:58:01;;;;;;;17.37;15.50;;;;;;;10.58;83.11;101181.16;5137011;27;20039;-38
2021/05/12 05:00:27;;;;;;;18.53;14.33;;;;;;;10.64;82.77;101173.19;5136954;27;20019;-38
2021/05/12 05:02:53;;;;;;;16.85;15.05;;;;;;;10.64;82.37;101174.06;5137027;27;20811;-38
2021/05/12 05:05:20;;;;;;;20.42;15.20;;;;;;;10.63;82.21;101175.06;5136565;27;20023;-38
2021/05/12 05:07:46;;;;;;;20.80;15.20;;;;;;;10.62;82.39;101180.72;5136233;27;20027;-38
2021/05/12 05:10:12;;;;;;;16.60;14.68;;;;;;;10.56;82.53;101177.03;5136989;27;20034;-38
2021/05/12 05:12:38;;;;;;;19.38;15.25;;;;;;;10.66;82.05;101188.16;5136376;27;20039;-38
2021/05/12 05:15:04;;;;;;;17.77;15.27;;;;;;;10.73;81.91;101190.78;5136575;27;20076;-38
2021/05/12 05:17:30;;;;;;;16.90;15.15;;;;;;;10.89;82.18;101189.41;5136578;27;20019;-38
2021/05/12 05:19:58;;;;;;;21.05;15.57;;;;;;;10.95;81.26;101192.03;5137391;27;20046;-38
2021/05/12 05:22:25;;;;;;;16.45;13.98;;;;;;;11.06;81.12;101187.75;5136973;27;20087;-38
2021/05/12 05:24:52;;;;;;;18.08;14.93;;;;;;;11.17;80.81;101194.28;5136457;27;20023;-38
2021/05/12 05:27:17;;;;;;;;;;;;;;;11.33;80.61;101207.22;5137532;27;20470;-38
2021/05/12 05:29:42;;;;;;;15.57;13.57;;;;;;;11.34;80.13;101196.16;5135966;27;19911;-38
2021/05/12 05:32:07;;;;;;;16.27;14.67;;;;;;;11.43;79.45;101198.56;5135959;27;20264;-38
2021/05/12 05:34:33;;;;;;;17.13;13.53;;;;;;;11.51;79.19;101201.75;5136630;27;20101;-38
2021/05/12 05:36:58;;;;;;;17.50;13.10;;;;;;;11.53;78.50;101199.66;5136090;27;20034;-39
2021/05/12 05:39:24;;;;;;;16.03;12.83;;;;;;;11.68;78.10;101201.13;5136952;27;20031;-39
2021/05/12 05:41:54;;;;;;;14.97;12.70;;;;;;;11.68;78.55;101211.97;5136051;27;20454;-38
2021/05/12 05:44:20;;;;;;;16.38;12.82;;;;;;;11.68;77.99;101203.84;5136533;27;20053;-38
2021/05/12 05:46:45;;;;;;;;;;;;;;;11.91;77.82;101198.53;5136085;27;20031;-38
2021/05/12 05:49:11;;;;;;;14.02;12.52;;;;;;;11.85;77.87;101197.56;5135671;27;19918;-38
2021/05/12 05:51:36;;;;;;;15.70;11.00;;;;;;;11.90;75.91;101199.59;5136329;27;20031;-38
2021/05/12 05:54:02;;;;;;;15.47;11.00;;;;;;;11.96;76.76;101204.09;5135905;27;20367;-38
2021/05/12 05:56:27;;;;;;;14.18;10.90;;;;;;;12.06;76.08;101200.81;5135968;27;20039;-38
2021/05/12 05:58:52;;;;;;;11.67;10.10;;;;;;;12.10;75.82;101205.56;5136091;27;20374;-38
2021/05/12 06:01:17;;;;;;;12.70;9.80;;;;;;;12.13;75.31;101198.00;5135403;27;20023;-38
2021/05/12 06:03:43;;;;;;;12.80;9.17;;;;;;;12.14;74.49;101191.50;5135635;27;20026;-38
2021/05/12 06:06:08;;;;;;;13.53;8.70;;;;;;;12.23;75.02;101198.25;5136180;27;20080;-37
2021/05/12 06:08:33;;;;;;;13.23;9.77;;;;;;;12.30;74.18;101199.81;5136033;27;20087;-38
2021/05/12 06:10:59;;;;;;;14.63;9.93;;;;;;;12.38;74.97;101199.44;5135884;27;20253;-38
2021/05/12 06:13:24;;;;;;;14.17;8.87;;;;;;;12.42;74.05;101197.09;5135493;27;20530;-38
2021/05/12 06:15:49;;;;;;;14.60;8.70;;;;;;;12.44;73.80;101194.16;5135692;27;20375;-38
2021/05/12 06:18:15;;;;;;;13.17;8.10;;;;;;;12.49;74.00;101196.97;5135658;27;20038;-37
2021/05/12 06:20:40;;;;;;;14.97;7.93;;;;;;;12.53;73.67;101198.97;5134947;27;20118;-37
2021/05/12 06:23:05;;;;;;;18.80;8.73;;;;;;;12.55;73.55;101199.59;5134978;27;20023;-38
2021/05/12 06:25:31;;;;;;;11.18;7.45;;;;;;;12.61;72.88;101200.53;5135195;27;20039;-38
2021/05/12 06:27:57;;;;;;;11.93;6.97;;;;;;;12.62;73.06;101194.88;5135106;27;20027;-37
2021/05/12 06:30:23;;;;;;;10.65;7.32;;;;;;;12.67;71.84;101198.75;5135705;27;20031;-38
2021/05/12 06:32:51;;;;;;;11.82;6.45;;;;;;;12.71;71.75;101191.81;5135544;27;20356;-38
2021/05/12 06:35:17;;;;;;;14.75;6.88;;;;;;;12.81;72.54;101203.72;5134870;27;20038;-38
2021/05/12 06:37:42;;;;;;;12.32;6.60;;;;;;;12.87;70.11;101201.94;5134994;27;20450;-38
2021/05/12 06:40:08;;;;;;;11.27;6.43;;;;;;;12.91;69.49;101199.56;5135190;27;20023;-38
2021/05/12 06:42:33;;;;;;;9.35;5.28;;;;;;;12.91;70.34;101189.53;5134884;27;20027;-38
2021/05/12 06:44:59;;;;;;;11.40;5.43;;;;;;;12.96;69.59;101196.97;5135687;27;20035;-38
2021/05/12 06:47:24;;;;;;;12.02;5.43;;;;;;;13.06;69.48;101202.63;5134849;27;20027;-38
2021/05/12 06:49:50;;;;;;;12.23;5.27;;;;;;;13.13;69.21;101198.72;5134606;27;20089;-38
2021/05/12 06:52:15;;;;;;;11.17;5.90;;;;;;;13.21;68.28;101199.41;5135067;27;20352;-38
2021/05/12 06:54:40;;;;;;;14.37;5.43;;;;;;;13.21;68.19;101205.66;5135519;27;20030;-38
2021/05/12 06:57:06;;;;;;;13.97;6.00;;;;;;;13.30;68.52;101198.81;5134781;27;20628;-38
2021/05/12 06:59:31;;;;;;;12.20;5.10;;;;;;;13.30;67.54;101204.25;5134917;27;20025;-38
2021/05/12 07:01:56;;;;;;;13.27;5.80;;;;;;;13.35;67.62;101198.09;5134123;27;20119;-38
2021/05/12 07:04:22;;;;;;;13.13;5.20;;;;;;;13.38;66.30;101200.34;5134835;27;20487;-38
2021/05/12 07:06:47;;;;;;;9.43;4.10;;;;;;;13.44;66.85;101204.00;5135226;27;20022;-38
2021/05/12 07:09:12;;;;;;;6.43;3.57;;;;;;;13.51;67.18;101201.94;5134797;27;20403;-38
2021/05/12 07:11:38;;;;;;;10.50;5.07;;;;;;;13.55;65.97;101201.22;5133607;27;20031;-39
2021/05/12 07:14:06;;;;;;;10.05;4.40;;;;;;;13.64;66.34;101191.63;5135247;27;20114;-39
2021/05/12 07:16:32;;;;;;;8.63;4.05;;;;;;;13.72;66.19;101192.31;5134551;27;20110;-39
2021/05/12 07:18:58;;;;;;;10.37;3.33;;;;;;;13.78;64.23;101194.88;5134700;27;20114;-38
2021/05/12 07:21:23;;;;;;;11.90;4.10;;;;;;;13.80;64.44;101192.72;5134334;27;20321;-39
2021/05/12 07:23:48;;;;;;;7.40;3.53;;;;;;;13.89;64.38;101190.44;5134975;27;20023;-38
2021/05/12 07:26:14;;;;;;;10.47;3.87;;;;;;;13.89;63.86;101195.88;5135035;28;20023;-38
2021/05/12 07:28:39;;;;;;;5.38;2.80;;;;;;;13.94;63.14;101193.25;5133001;28;20265;-39
2021/05/12 07:31:05;;;;;;;7.60;3.03;;;;;;;14.00;62.69;101194.97;5134483;28;20027;-38
2021/05/12 07:33:30;;;;;;;8.77;2.90;;;;;;;14.06;62.71;101202.19;5133816;28;20364;-38
2021/05/12 07:35:56;;;;;;;9.98;3.50;;;;;;;14.12;63.38;101195.75;5133999;28;20031;-38
2021/05/12 07:38:21;;;;;;;8.07;3.23;;;;;;;14.18;62.44;101194.75;5133751;28;20027;-38
2021/05/12 07:40:46;;;;;;;9.83;3.03;;;;;;;14.27;62.24;101199.78;5134371;28;20031;-38
2021/05/12 07:43:12;;;;;;;11.20;3.50;;;;;;;14.31;61.94;101204.50;5134572;28;20027;-37
2021/05/12 07:45:39;;;;;;;;;;;;;;;14.49;62.78;101202.63;5134750;28;20304;-38
2021/05/12 07:48:05;;;;;;;11.52;3.55;;;;;;;14.32;60.08;101210.75;5133965;28;19926;-39
2021/05/12 07:50:31;;;;;;;7.78;3.03;;;;;;;14.30;61.39;101207.44;5133696;28;20023;-38
2021/05/12 07:52:58;;;;;;;10.80;3.30;;;;;;;14.28;60.32;101215.03;5133959;28;20030;-38
2021/05/12 07:55:24;;;;;;;5.32;2.38;;;;;;;14.35;60.75;101218.44;5134155;28;20023;-39
2021/05/12 07:57:49;;;;;;;4.72;2.20;;;;;;;14.36;59.33;101211.91;5133673;28;20179;-39
2021/05/12 08:00:16;;;;;;;9.53;3.23;;;;;;;14.47;59.96;101212.91;5134229;28;20027;-39
2021/05/12 08:02:41;;;;;;;7.28;2.55;;;;;;;14.55;59.43;101207.09;5133591;28;20748;-39
2021/05/12 08:05:07;;;;;;;17.92;3.53;;;;;;;14.65;59.52;101207.25;5133900;27;20068;-39
2021/05/12 08:07:33;;;;;;;9.18;3.45;;;;;;;14.67;60.08;101197.72;5133544;28;20019;-39
2021/05/12 08:09:59;;;;;;;7.68;3.22;;;;;;;14.77;59.54;101196.25;5135202;28;20025;-39
2021/05/12 08:12:24;;;;;;;6.30;3.15;;;;;;;14.80;58.33;101190.31;5133829;27;20027;-39
2021/05/12 08:14:50;;;;;;;7.75;3.42;;;;;;;14.80;58.55;101193.84;5136292;27;20110;-39
2021/05/12 08:17:15;;;;;;;6.63;3.00;;;;;;;14.79;57.66;101197.66;5137709;27;20084;-39
2021/05/12 08:19:40;;;;;;;6.50;2.60;;;;;;;14.88;58.44;101198.03;5137694;27;20799;-39
2021/05/12 08:22:07;;;;;;;11.93;3.40;;;;;;;14.90;57.56;101198.63;5137248;27;20289;-39
2021/05/12 08:24:33;;;;;;;7.30;2.92;;;;;;;14.96;57.87;101194.06;5137822;27;20023;-39
2021/05/12 08:27:01;;;;;;;7.60;2.83;;;;;;;15.14;57.78;101199.22;5137544;27;20359;-39
2021/05/12 08:29:26;;;;;;;7.32;3.10;;;;;;;15.26;56.78;101204.53;5138314;27;20110;-39
2021/05/12 08:31:52;;;;;;;8.40;3.27;;;;;;;15.27;54.60;101207.00;5137129;27;20073;-39
2021/05/12 08:34:17;;;;;;;6.10;3.10;;;;;;;15.28;54.91;101199.66;5137894;27;20027;-39
2021/05/12 08:36:42;;;;;;;11.05;3.67;;;;;;;15.33;54.40;101205.19;5137547;27;20374;-39
2021/05/12 08:39:09;;;;;;;10.67;3.80;;;;;;;15.35;54.90;101200.28;5137335;27;20031;-39
2021/05/12 08:41:35;;;;;;;9.23;3.78;;;;;;;15.38;55.50;101191.63;5136915;27;20804;-39
2021/05/12 08:44:04;;;;;;;6.45;3.38;;;;;;;15.55;56.20;101200.53;5137432;27;20106;-39
2021/05/12 08:46:30;;;;;;;9.93;3.63;;;;;;;15.63;55.33;101197.38;5137393;27;20411;-39
2021/05/12 08:48:56;;;;;;;;;;;;;;;15.92;57.37;101197.94;5137519;27;20031;-38
2021/05/12 08:51:21;;;;;;;8.85;2.90;;;;;;;16.03;53.80;101198.88;5137848;27;19914;-38
2021/05/12 08:53:47;;;;;;;7.40;2.90;;;;;;;16.19;54.29;101202.56;5136913;27;20026;-37
2021/05/12 08:56:13;;;;;;;8.57;2.78;;;;;;;16.05;53.70;101193.97;5136609;27;20100;-38
2021/05/12 08:58:38;;;;;;;;;;;;;;;16.28;55.19;101201.00;5137167;27;20031;-37
2021/05/12 09:01:04;;;;;;;5.57;2.00;;;;;;;16.08;50.29;101190.72;5136484;27;20289;-38
2021/05/12 09:03:30;;;;;;;6.70;2.05;;;;;;;16.19;51.02;101188.91;5136333;27;20035;-38
2021/05/12 09:05:59;;;;;;;5.80;1.63;;;;;;;16.32;48.56;101190.38;5136846;27;20106;-38
2021/05/12 09:08:26;;;;;;;5.15;2.17;;;;;;;16.39;49.52;101182.78;5136539;27;20019;-39
2021/05/12 09:10:52;;;;;;;5.15;1.70;;;;;;;16.15;47.37;101190.50;5136458;27;20031;-38
2021/05/12 09:13:33;;;;;;;6.72;1.70;;;;;;;15.88;50.27;101190.53;5136843;27;20076;-39
2021/05/12 09:16:24;;;;;;;5.10;1.70;;;;;;;15.68;51.57;101191.97;5136643;27;20023;-39
2021/05/12 09:18:58;;;;;;;5.53;1.75;;;;;;;15.67;50.31;101181.34;5136314;27;20020;-39
2021/05/12 09:21:50;;;;;;;5.25;1.60;;;;;;;15.68;49.26;101185.72;5136303;27;20039;-38
2021/05/12 09:24:30;;;;;;;6.07;1.98;;;;;;;15.66;49.56;101187.84;5136285;27;20039;-39
2021/05/12 09:26:58;;;;;;;5.68;2.03;;;;;;;15.63;47.82;101189.19;5136281;27;20030;-39
2021/05/12 09:29:29;;;;;;;8.35;2.10;;;;;;;15.55;49.17;101188.78;5136230;27;20080;-38
2021/05/12 09:32:07;;;;;;;5.75;1.83;;;;;;;15.60;49.90;101184.22;5136531;27;20080;-39
2021/05/12 09:34:52;;;;;;;9.80;2.72;;;;;;;15.64;51.67;101185.38;5136162;27;20560;-39
2021/05/12 09:37:28;;;;;;;6.53;1.95;;;;;;;15.75;50.90;101186.31;5136356;27;20155;-38
2021/05/12 09:39:55;;;;;;;4.40;1.55;;;;;;;15.94;50.81;101179.41;5136382;27;20463;-40
2021/05/12 09:42:22;;;;;;;7.68;1.77;;;;;;;16.18;50.88;101184.53;5135962;27;20386;-37
2021/05/12 09:44:48;;;;;;;7.70;2.30;;;;;;;16.26;48.34;101184.06;5136024;27;20038;-38
2021/05/12 09:47:29;;;;;;;8.48;2.38;;;;;;;16.35;50.95;101179.78;5135944;27;20057;-38
2021/05/12 09:49:55;;;;;;;5.82;1.65;;;;;;;16.18;48.43;101174.44;5136408;27;20055;-40
2021/05/12 09:52:30;;;;;;;7.00;1.83;;;;;;;16.16;49.62;101184.81;5136415;27;20380;-39
2021/05/12 09:55:00;;;;;;;6.88;1.77;;;;;;;16.08;48.63;101190.72;5136281;27;20039;-37
2021/05/12 09:57:26;;;;;;;6.93;2.03;;;;;;;16.02;48.44;101174.59;5135702;27;20027;-37
2021/05/12 09:59:51;;;;;;;7.28;2.20;;;;;;;16.12;49.12;101183.69;5136334;27;20035;-38
2021/05/12 10:02:16;;;;;;;5.93;1.90;;;;;;;16.12;48.91;101182.84;5135604;27;20035;-38
2021/05/12 10:04:43;;;;;;;10.77;1.93;;;;;;;16.16;49.08;101184.81;5135914;27;20728;-38
2021/05/12 10:07:12;;;;;;;5.40;1.70;;;;;;;16.13;48.75;101179.03;5135667;27;20624;-38
2021/05/12 10:09:37;;;;;;;6.68;2.00;;;;;;;16.37;49.28;101182.25;5136252;27;20379;-39
2021/05/12 10:12:05;;;;;;;5.47;2.03;;;;;;;16.65;49.18;101184.63;5135352;27;20023;-39
2021/05/12 10:14:35;;;;;;;6.68;1.80;;;;;;;16.58;47.41;101184.03;5135484;27;20604;-38
2021/05/12 10:17:01;;;;;;;8.68;2.20;;;;;;;16.62;47.39;101176.13;5134851;27;20607;-38
2021/05/12 10:19:27;;;;;;;7.00;1.95;;;;;;;16.78;47.17;101166.97;5135291;27;20019;-39
2021/05/12 10:21:53;;;;;;;6.18;2.03;;;;;;;16.80;48.42;101167.53;5135456;27;20130;-38
2021/05/12 10:24:19;;;;;;;7.10;1.90;;;;;;;16.78;46.88;101177.06;5134855;27;20026;-39
2021/05/12 10:26:45;;;;;;;7.55;1.65;;;;;;;16.75;46.39;101169.44;5135145;27;20038;-39
2021/05/12 10:29:17;;;;;;;8.52;1.90;;;;;;;16.71;50.08;101178.13;5136030;27;20091;-39
2021/05/12 10:31:43;;;;;;;7.03;2.15;;;;;;;16.93;48.94;101168.97;5135023;27;20028;-38
2021/05/12 10:34:08;;;;;;;6.78;2.00;;;;;;;16.97;47.06;101170.06;5135664;27;20034;-39
2021/05/12 10:36:33;;;;;;;5.93;1.80;;;;;;;17.00;45.74;101164.09;5133849;27;20064;-39
2021/05/12 10:39:04;;;;;;;5.22;1.42;;;;;;;17.08;46.53;101165.47;5134980;27;20462;-39
2021/05/12 10:41:47;;;;;;;5.82;1.92;;;;;;;17.24;46.59;101159.81;5134840;27;20026;-39
2021/05/12 10:44:17;;;;;;;4.35;1.48;;;;;;;17.32;45.79;101155.72;5134990;27;20027;-39
2021/05/12 10:47:09;;;;;;;7.00;2.03;;;;;;;17.36;44.53;101154.13;5135019;27;20421;-39
2021/05/12 10:49:35;;;;;;;4.47;1.50;;;;;;;17.75;44.06;101157.25;5135529;27;20076;-39
2021/05/12 10:52:09;;;;;;;3.65;1.52;;;;;;;17.82;44.42;101147.97;5135260;27;20377;-39
2021/05/12 10:54:40;;;;;;;5.38;1.60;;;;;;;17.80;45.03;101161.09;5134918;27;20443;-39
2021/05/12 10:57:07;;;;;;;4.47;1.50;;;;;;;17.65;45.21;101142.72;5134805;27;20045;-39
2021/05/12 10:59:33;;;;;;;5.35;1.58;;;;;;;17.45;44.83;101147.03;5134648;27;20031;-39
2021/05/12 11:01:59;;;;;;;4.38;1.40;;;;;;;17.37;45.92;101146.72;5134448;27;20076;-39
2021/05/12 11:04:25;;;;;;;;;;;;;;;17.44;45.06;101145.41;5135136;27;20023;-39
2021/05/12 11:06:50;;;;;;;4.78;1.58;;;;;;;17.04;45.13;101153.47;5134587;27;19956;-39
2021/05/12 11:09:20;;;;;;;7.70;1.83;;;;;;;16.93;46.94;101163.50;5134818;27;20375;-39
2021/05/12 11:11:48;;;;;;;5.00;1.77;;;;;;;16.80;45.84;101153.91;5134236;27;20265;-40
2021/05/12 11:14:20;;;;;;;6.70;1.98;;;;;;;16.76;46.77;101154.69;5115376;27;20027;-38
2021/05/12 11:17:18;;;;;;;4.15;1.52;;;;;;;16.81;47.85;101160.16;5114347;28;20042;-39
2021/05/12 11:19:57;;;;;;;;;;;;;;;16.90;48.67;101148.47;5091918;28;20060;-39